createdAt,value
2022-12-16T00:00:41.566Z,-1.49
2022-12-16T00:01:43.633Z,-1.40
2022-12-16T00:02:45.612Z,-1.55
2022-12-16T00:03:51.837Z,-1.41
2022-12-16T00:04:54.114Z,-1.41
2022-12-16T00:05:56.119Z,-1.41
2022-12-16T00:06:58.338Z,-1.40
2022-12-16T00:08:00.216Z,-1.43
2022-12-16T00:09:02.437Z,-1.46
2022-12-16T00:10:06.229Z,-1.44
2022-12-16T00:11:09.058Z,-1.40
2022-12-16T00:12:10.947Z,-1.40
2022-12-16T00:13:12.820Z,-1.47
2022-12-16T00:14:15.324Z,-1.48
2022-12-16T00:15:17.208Z,-1.52
2022-12-16T00:16:20.959Z,-1.55
2022-12-16T00:17:23.358Z,-1.56
2022-12-16T00:18:25.648Z,-1.59
2022-12-16T00:19:27.548Z,-1.59
2022-12-16T00:20:29.693Z,-1.61
2022-12-16T00:21:31.716Z,-1.62
2022-12-16T00:22:33.607Z,-1.68
2022-12-16T00:23:37.672Z,-1.77
2022-12-16T00:24:39.625Z,-1.83
2022-12-16T00:25:43.539Z,-1.90
2022-12-16T00:26:45.660Z,-1.85
2022-12-16T00:27:47.548Z,-1.89
2022-12-16T00:28:49.742Z,-1.88
2022-12-16T00:29:54.716Z,-1.90
2022-12-16T00:30:58.978Z,-1.90
2022-12-16T00:32:01.085Z,-1.86
2022-12-16T00:33:04.187Z,-1.88
2022-12-16T00:34:06.227Z,-1.91
2022-12-16T00:35:08.800Z,-1.94
2022-12-16T00:36:13.654Z,-1.97
2022-12-16T00:37:15.586Z,-1.98
2022-12-16T00:38:18.102Z,-1.93
2022-12-16T00:39:20.109Z,-1.92
2022-12-16T00:40:22.488Z,-1.92
2022-12-16T00:41:24.390Z,-1.92
2022-12-16T00:42:26.253Z,-1.92
2022-12-16T00:43:28.288Z,-1.91
2022-12-16T00:44:30.244Z,-1.90
2022-12-16T00:45:32.330Z,-1.87
2022-12-16T00:46:34.530Z,-1.88
2022-12-16T00:47:42.528Z,-1.92
2022-12-16T00:48:43.306Z,-1.87
2022-12-16T00:49:45.201Z,-1.91
2022-12-16T00:50:50.146Z,-1.87
2022-12-16T00:51:58.864Z,-1.90
2022-12-16T00:53:01.325Z,-1.91
2022-12-16T00:54:03.455Z,-1.89
2022-12-16T00:55:07.846Z,-1.89
2022-12-16T00:56:13.792Z,-1.90
2022-12-16T00:57:15.711Z,-1.85
2022-12-16T00:58:19.032Z,-1.78
2022-12-16T00:59:21.176Z,-1.84
2022-12-16T01:00:23.913Z,-1.77
2022-12-16T01:01:25.882Z,-1.75
2022-12-16T01:02:28.092Z,-1.71
2022-12-16T01:03:30.785Z,-1.69
2022-12-16T01:04:32.797Z,-1.73
2022-12-16T01:05:37.648Z,-1.81
2022-12-16T01:06:39.773Z,-1.80
2022-12-16T01:07:42.949Z,-1.84
2022-12-16T01:08:44.985Z,-1.87
2022-12-16T01:09:46.868Z,-1.88
2022-12-16T01:10:55.341Z,-1.87
2022-12-16T01:11:57.980Z,-1.89
2022-12-16T01:13:00.816Z,-1.92
2022-12-16T01:14:02.882Z,-1.92
2022-12-16T01:15:06.632Z,-1.92
2022-12-16T01:16:09.657Z,-1.95
2022-12-16T01:17:11.629Z,-1.93
2022-12-16T01:18:14.848Z,-1.97
2022-12-16T01:19:16.844Z,-2.02
2022-12-16T01:20:18.925Z,-2.05
2022-12-16T01:21:20.796Z,-2.05
2022-12-16T01:22:23.487Z,-2.02
2022-12-16T01:23:25.388Z,-2.09
2022-12-16T01:24:27.270Z,-2.17
2022-12-16T01:25:29.445Z,-2.17
2022-12-16T01:26:31.556Z,-2.19
2022-12-16T01:27:33.425Z,-2.15
2022-12-16T01:28:35.410Z,-2.18
2022-12-16T01:29:37.481Z,-2.17
2022-12-16T01:30:40.264Z,-2.21
2022-12-16T01:31:42.181Z,-2.19
2022-12-16T01:32:44.253Z,-2.21
2022-12-16T01:33:47.071Z,-2.26
2022-12-16T01:34:55.188Z,-2.24
2022-12-16T01:36:00.851Z,-2.14
2022-12-16T01:37:02.893Z,-2.20
2022-12-16T01:38:05.883Z,-2.21
2022-12-16T01:39:10.532Z,-2.17
2022-12-16T01:40:19.624Z,-2.11
2022-12-16T01:41:21.844Z,-2.12
2022-12-16T01:42:23.949Z,-2.15
2022-12-16T01:43:36.006Z,-2.20
2022-12-16T01:44:40.327Z,-2.32
2022-12-16T01:45:43.019Z,-2.26
2022-12-16T01:46:51.698Z,-2.16
2022-12-16T01:47:57.969Z,-2.13
2022-12-16T01:49:03.647Z,-2.19
2022-12-16T01:50:12.493Z,-2.40
2022-12-16T01:51:24.170Z,-2.40
2022-12-16T01:52:32.558Z,-2.30
2022-12-16T01:53:37.164Z,-2.21
2022-12-16T01:54:49.177Z,-2.18
2022-12-16T01:55:54.057Z,-2.35
2022-12-16T01:57:02.778Z,-2.27
2022-12-16T01:59:18.336Z,-2.03
2022-12-16T02:00:20.699Z,-2.24
2022-12-16T02:01:23.221Z,-2.42
2022-12-16T02:02:25.819Z,-2.46
2022-12-16T06:07:35.544Z,-2.26
2022-12-16T06:08:38.487Z,-2.37
2022-12-16T06:09:40.424Z,-2.36
2022-12-16T06:10:42.428Z,-2.36
2022-12-16T06:11:44.403Z,-2.34
2022-12-16T06:12:49.235Z,-2.26
2022-12-16T06:13:51.176Z,-2.18
2022-12-16T06:14:53.268Z,-2.11
2022-12-16T06:15:55.851Z,-2.08
2022-12-16T06:16:58.915Z,-1.99
2022-12-16T06:18:00.846Z,-1.95
2022-12-16T06:19:03.828Z,-1.90
2022-12-16T06:20:08.511Z,-1.88
2022-12-16T06:21:10.530Z,-1.86
2022-12-16T06:22:12.615Z,-1.85
2022-12-16T06:23:15.117Z,-1.84
2022-12-16T06:24:17.177Z,-1.80
2022-12-16T06:25:19.099Z,-1.78
2022-12-16T06:26:21.278Z,-1.75
2022-12-16T06:27:23.296Z,-1.76
2022-12-16T06:28:25.805Z,-1.72
2022-12-16T06:29:27.703Z,-1.75
2022-12-16T06:30:29.683Z,-1.71
2022-12-16T06:31:32.033Z,-1.70
2022-12-16T06:32:34.285Z,-1.69
2022-12-16T06:33:36.163Z,-1.69
2022-12-16T06:34:38.044Z,-1.68
2022-12-16T06:35:40.410Z,-1.60
2022-12-16T06:36:42.713Z,-1.65
2022-12-16T06:37:47.765Z,-1.60
2022-12-16T06:38:49.911Z,-1.63
2022-12-16T06:39:53.228Z,-1.70
2022-12-16T06:40:55.826Z,-1.68
2022-12-16T06:41:57.985Z,-1.73
2022-12-16T06:43:00.259Z,-1.66
2022-12-16T06:44:02.173Z,-1.71
2022-12-16T06:45:05.360Z,-1.68
2022-12-16T06:46:07.749Z,-1.72
2022-12-16T06:47:09.819Z,-1.69
2022-12-16T06:48:12.021Z,-1.68
2022-12-16T06:49:13.897Z,-1.64
2022-12-16T06:50:16.191Z,-1.61
2022-12-16T06:51:18.081Z,-1.60
2022-12-16T06:52:19.948Z,-1.59
2022-12-16T06:53:24.159Z,-1.55
2022-12-16T06:54:26.064Z,-1.56
2022-12-16T06:55:28.724Z,-1.61
2022-12-16T06:56:30.765Z,-1.58
2022-12-16T06:57:32.637Z,-1.56
2022-12-16T06:58:34.514Z,-1.55
2022-12-16T06:59:36.651Z,-1.60
2022-12-16T07:00:38.682Z,-1.58
2022-12-16T07:01:41.566Z,-1.60
2022-12-16T07:03:56.901Z,-1.53
2022-12-16T07:05:00.415Z,-1.57
2022-12-16T07:06:02.769Z,-1.55
2022-12-16T07:07:04.657Z,-1.55
2022-12-16T07:08:06.525Z,-1.50
2022-12-16T07:09:08.574Z,-1.49
2022-12-16T07:10:10.875Z,-1.53
2022-12-16T07:11:16.892Z,-1.56
2022-12-16T07:12:16.926Z,-1.53
2022-12-16T07:13:18.948Z,-1.43
2022-12-16T15:51:21.944Z,-0.19
2022-12-16T15:52:33.490Z,-0.31
2022-12-16T15:53:37.342Z,-0.32
2022-12-16T15:54:51.106Z,-0.29
2022-12-16T15:55:59.485Z,-0.31
2022-12-16T15:57:01.094Z,-0.35
2022-12-16T15:58:05.035Z,-0.34
2022-12-16T15:59:22.580Z,-0.35
2022-12-16T16:00:28.128Z,-0.35
2022-12-16T16:01:33.890Z,-0.33
2022-12-16T16:02:36.123Z,-0.35
2022-12-16T16:03:45.142Z,-0.35
2022-12-16T16:04:48.049Z,-0.33
2022-12-16T16:05:50.148Z,-0.32
2022-12-16T16:06:52.715Z,-0.30
2022-12-16T16:07:56.846Z,-0.33
2022-12-16T16:09:03.446Z,-0.32
2022-12-16T16:11:20.750Z,-0.20
2022-12-16T16:12:25.173Z,-0.31
2022-12-16T16:13:27.411Z,-0.30
2022-12-16T16:14:29.309Z,-0.31
2022-12-16T16:15:31.285Z,-0.31
2022-12-16T16:16:33.807Z,-0.29
2022-12-16T18:47:06.258Z,0.27
2022-12-16T18:49:18.547Z,0.30
2022-12-16T18:50:27.222Z,0.21
2022-12-16T18:51:24.560Z,0.20
2022-12-16T18:52:27.149Z,0.22
2022-12-16T18:53:29.825Z,0.24
2022-12-16T18:54:31.705Z,0.23
2022-12-16T18:55:33.831Z,0.22
2022-12-16T18:56:37.315Z,0.27
2022-12-16T18:57:40.022Z,0.25
2022-12-16T18:58:51.257Z,0.25
2022-12-16T18:59:45.952Z,0.26
2022-12-16T19:00:47.968Z,0.24
2022-12-16T19:01:50.485Z,0.22
2022-12-16T19:02:52.885Z,0.23
2022-12-16T19:03:56.510Z,0.26
2022-12-16T19:05:00.871Z,0.30
2022-12-16T19:06:03.155Z,0.27
2022-12-16T19:07:05.046Z,0.30
2022-12-16T19:08:11.219Z,0.31
2022-12-16T19:09:11.195Z,0.35
2022-12-16T19:10:13.638Z,0.30
2022-12-16T19:11:15.515Z,0.29
2022-12-16T19:12:17.424Z,0.30
2022-12-16T19:13:19.303Z,0.33
2022-12-16T19:14:21.188Z,0.32
2022-12-16T19:15:23.507Z,0.33
2022-12-16T19:16:25.965Z,0.29
2022-12-16T19:17:28.102Z,0.31
2022-12-16T19:18:30.120Z,0.31
2022-12-16T19:19:32.134Z,0.31
2022-12-16T19:20:34.111Z,0.30
2022-12-16T19:21:36.012Z,0.32
2022-12-16T19:22:37.965Z,0.34
2022-12-16T19:23:40.652Z,0.32
2022-12-16T19:24:42.853Z,0.31
2022-12-16T19:25:44.924Z,0.34
2022-12-16T19:26:47.565Z,0.38
2022-12-16T19:27:49.776Z,0.39
2022-12-16T19:28:51.739Z,0.34
2022-12-16T19:29:54.735Z,0.38
2022-12-16T19:30:58.403Z,0.36
2022-12-16T19:32:01.895Z,0.35
2022-12-16T19:33:03.929Z,0.34
2022-12-16T19:34:08.790Z,0.38
2022-12-16T19:35:11.535Z,0.35
2022-12-16T19:36:13.504Z,0.33
2022-12-16T19:37:15.393Z,0.38
2022-12-16T19:38:17.271Z,0.39
2022-12-16T19:39:19.256Z,0.39
2022-12-16T19:40:21.352Z,0.38
2022-12-16T19:41:23.533Z,0.38
2022-12-16T19:42:25.603Z,0.34
2022-12-16T19:43:27.490Z,0.38
2022-12-16T19:44:30.797Z,0.41
2022-12-16T19:45:32.778Z,0.39
2022-12-16T19:46:35.350Z,0.40
2022-12-16T19:47:37.340Z,0.39
2022-12-16T19:48:40.066Z,0.41
2022-12-16T19:49:44.452Z,0.38
2022-12-16T19:50:46.467Z,0.38
2022-12-16T19:51:49.635Z,0.36
2022-12-16T19:52:51.732Z,0.36
2022-12-16T19:53:53.648Z,0.38
2022-12-16T19:54:58.476Z,0.38
2022-12-16T19:56:00.592Z,0.40
2022-12-16T19:57:02.886Z,0.42
2022-12-16T19:58:05.522Z,0.41
2022-12-16T19:59:07.435Z,0.43
2022-12-16T20:00:11.951Z,0.46
2022-12-16T20:01:14.510Z,0.46
2022-12-16T20:02:17.022Z,0.46
2022-12-16T20:03:19.516Z,0.49
2022-12-16T20:04:21.589Z,0.48
2022-12-16T20:05:23.669Z,0.46
2022-12-16T20:06:26.029Z,0.50
2022-12-16T20:07:28.171Z,0.47
2022-12-16T20:08:30.468Z,0.49
2022-12-16T20:09:32.383Z,0.49
2022-12-16T20:10:36.153Z,0.50
2022-12-16T20:11:38.785Z,0.46
2022-12-16T20:12:40.716Z,0.50
2022-12-16T20:13:42.612Z,0.47
2022-12-16T20:14:44.967Z,0.50
2022-12-16T20:15:46.892Z,0.49
2022-12-16T20:16:48.992Z,0.51
2022-12-16T20:17:51.736Z,0.44
2022-12-16T20:18:55.434Z,0.51
2022-12-16T20:19:58.167Z,0.48
2022-12-16T20:21:02.752Z,0.46
2022-12-16T20:22:07.478Z,0.46
2022-12-16T20:23:08.693Z,0.44
2022-12-16T20:24:11.539Z,0.45
2022-12-16T20:25:13.608Z,0.46
2022-12-16T20:26:15.625Z,0.47
2022-12-16T20:27:17.761Z,0.47
2022-12-16T20:28:24.771Z,0.51
2022-12-16T20:29:23.559Z,0.51
2022-12-16T20:30:25.686Z,0.51
2022-12-16T20:31:28.678Z,0.49
2022-12-16T20:32:30.572Z,0.50
2022-12-16T20:33:32.783Z,0.50
2022-12-16T20:34:34.771Z,0.52
2022-12-16T20:35:36.666Z,0.54
2022-12-16T20:36:38.785Z,0.56
2022-12-16T20:37:40.696Z,0.56
2022-12-16T20:38:42.739Z,0.53
2022-12-16T20:39:49.519Z,0.55
2022-12-16T20:41:03.235Z,0.54
2022-12-16T20:42:05.336Z,0.53
2022-12-16T20:43:12.060Z,0.55
2022-12-16T20:44:14.646Z,0.53
2022-12-16T20:45:18.055Z,0.57
2022-12-16T20:46:20.220Z,0.57
2022-12-16T20:47:22.112Z,0.53
2022-12-16T20:48:24.117Z,0.56
2022-12-16T20:49:26.068Z,0.57
2022-12-16T20:50:28.274Z,0.56
2022-12-16T20:51:30.224Z,0.56
2022-12-16T20:52:32.109Z,0.58
2022-12-16T20:53:34.098Z,0.55
2022-12-16T20:54:36.146Z,0.60
2022-12-16T20:55:38.637Z,0.59
2022-12-16T20:56:41.232Z,0.58
2022-12-16T20:57:44.421Z,0.58
2022-12-16T20:58:49.783Z,0.57
2022-12-16T20:59:51.755Z,0.60
2022-12-16T21:00:56.400Z,0.58
2022-12-16T21:03:07.732Z,0.64
2022-12-16T21:04:11.895Z,0.64
2022-12-16T21:05:14.083Z,0.58
2022-12-16T21:06:17.557Z,0.60
2022-12-16T21:07:19.749Z,0.61
2022-12-16T21:08:21.933Z,0.61
2022-12-16T21:09:24.355Z,0.60
2022-12-16T21:10:26.979Z,0.61
2022-12-16T21:11:29.159Z,0.64
2022-12-16T21:12:32.916Z,0.60
2022-12-16T21:13:34.824Z,0.61
2022-12-16T21:14:36.731Z,0.64
2022-12-16T21:15:38.806Z,0.65
2022-12-16T21:16:42.089Z,0.65
2022-12-16T21:17:44.229Z,0.66
2022-12-16T21:18:46.306Z,0.68
2022-12-16T21:19:48.940Z,0.69
2022-12-16T21:20:53.590Z,0.65
2022-12-16T21:21:57.529Z,0.64
2022-12-16T21:23:08.229Z,0.68
2022-12-16T21:24:10.308Z,0.71
2022-12-16T21:25:12.296Z,0.71
2022-12-16T21:26:14.330Z,0.70
2022-12-16T21:27:16.338Z,0.69
2022-12-16T21:28:18.220Z,0.71
2022-12-16T21:29:20.097Z,0.71
2022-12-16T21:30:22.318Z,0.73
2022-12-16T21:31:24.317Z,0.76
2022-12-16T21:32:26.288Z,0.74
2022-12-16T21:33:28.698Z,0.72
2022-12-16T21:34:31.234Z,0.75
2022-12-16T21:35:33.140Z,0.72
2022-12-16T21:36:35.342Z,0.75
2022-12-16T21:37:37.214Z,0.77
2022-12-16T21:38:39.116Z,0.77
2022-12-16T21:39:41.132Z,0.79
2022-12-16T21:40:51.104Z,0.78
2022-12-16T21:41:54.740Z,0.80
2022-12-16T21:42:58.717Z,0.84
2022-12-16T21:44:00.611Z,0.81
2022-12-16T21:45:02.973Z,0.84
2022-12-16T21:46:05.155Z,0.80
2022-12-16T21:47:07.031Z,0.79
2022-12-16T21:48:12.987Z,0.77
2022-12-16T21:49:17.642Z,0.81
2022-12-16T21:50:20.011Z,0.83
2022-12-16T21:51:22.191Z,0.82
2022-12-16T21:52:24.076Z,0.83
2022-12-16T21:53:26.051Z,0.84
2022-12-16T21:54:28.424Z,0.86
2022-12-16T21:55:30.303Z,0.83
2022-12-16T21:56:32.491Z,0.81
2022-12-16T21:57:34.393Z,0.86
2022-12-16T21:58:36.372Z,0.84
2022-12-16T21:59:38.342Z,0.84
2022-12-16T22:00:40.457Z,0.79
2022-12-16T22:01:42.538Z,0.77
2022-12-16T22:02:44.690Z,0.80
2022-12-16T22:03:46.811Z,0.82
2022-12-16T22:04:48.858Z,0.80
2022-12-16T22:05:50.729Z,0.83
2022-12-16T22:06:52.892Z,0.80
2022-12-16T22:07:56.191Z,0.85
2022-12-16T22:08:58.288Z,0.83
2022-12-16T22:10:00.194Z,0.84
2022-12-16T22:11:13.204Z,0.85
2022-12-16T22:12:15.240Z,0.87
2022-12-16T22:13:17.164Z,0.88
2022-12-16T22:14:19.047Z,0.94
2022-12-16T22:15:21.299Z,0.86
2022-12-16T22:16:23.708Z,0.91
2022-12-16T22:17:25.784Z,0.87
2022-12-16T22:18:27.813Z,0.87
2022-12-16T22:19:29.902Z,0.85
2022-12-16T22:20:34.015Z,0.89
2022-12-16T22:21:36.027Z,0.89
2022-12-16T22:22:38.019Z,0.90
2022-12-16T22:23:40.524Z,0.93
2022-12-16T22:24:42.880Z,0.92
2022-12-16T22:25:45.415Z,0.92
2022-12-16T22:26:47.511Z,0.90
2022-12-16T22:27:49.391Z,0.89
2022-12-16T22:28:52.101Z,0.88
2022-12-16T22:29:54.011Z,0.87
2022-12-16T22:30:58.188Z,0.89
2022-12-16T22:32:00.541Z,0.87
2022-12-16T22:33:02.616Z,0.87
2022-12-16T22:34:04.524Z,0.87
2022-12-16T22:35:07.496Z,0.86
2022-12-16T22:36:10.202Z,0.89
2022-12-16T22:36:21.729Z,0.63
2022-12-16T22:37:12.098Z,0.89
2022-12-16T22:38:13.982Z,0.89
2022-12-16T22:39:15.911Z,0.88
2022-12-16T22:40:20.947Z,0.94
2022-12-16T22:41:22.859Z,0.89
2022-12-16T22:42:25.259Z,0.87
2022-12-16T22:43:29.006Z,0.89
2022-12-16T22:44:30.947Z,0.93
2022-12-16T22:45:32.836Z,0.87
2022-12-16T22:46:35.185Z,0.92
2022-12-16T22:47:37.170Z,0.88
2022-12-16T22:48:39.319Z,0.88
2022-12-16T22:49:41.265Z,0.91
2022-12-16T22:50:43.695Z,0.92
2022-12-16T22:51:46.329Z,0.91
2022-12-16T22:52:48.429Z,0.92
2022-12-16T22:53:50.391Z,0.89
2022-12-16T22:54:52.284Z,0.92
2022-12-16T22:56:01.660Z,0.90
2022-12-16T22:56:59.716Z,0.93
2022-12-16T22:58:10.658Z,0.88
2022-12-16T22:59:12.620Z,0.91
2022-12-16T23:00:16.383Z,0.90
2022-12-16T23:01:18.298Z,0.90
2022-12-16T23:02:20.207Z,0.87
2022-12-16T23:03:23.436Z,0.88
2022-12-16T23:04:25.354Z,0.88
2022-12-16T23:05:28.207Z,0.87
2022-12-16T23:06:30.367Z,0.89
2022-12-16T23:07:32.256Z,0.88
2022-12-16T23:08:34.267Z,0.83
2022-12-16T23:09:37.238Z,0.86
2022-12-16T23:10:41.337Z,0.86
2022-12-16T23:11:43.937Z,0.87
2022-12-16T23:12:45.970Z,0.86
2022-12-16T23:13:48.159Z,0.85
2022-12-16T23:14:55.082Z,0.81
2022-12-16T23:16:00.335Z,0.81
2022-12-16T23:17:02.923Z,0.84
2022-12-16T23:18:04.803Z,0.83
2022-12-16T23:19:06.781Z,0.85
2022-12-16T23:20:10.286Z,0.85
2022-12-16T23:21:17.942Z,0.84
2022-12-16T23:22:19.853Z,0.87
2022-12-16T23:23:21.737Z,0.82
2022-12-16T23:24:23.784Z,0.85
2022-12-16T23:25:25.992Z,0.85
2022-12-16T23:26:27.986Z,0.88
2022-12-16T23:27:31.979Z,0.86
2022-12-16T23:28:34.483Z,0.88
2022-12-16T23:29:36.466Z,0.86
2022-12-16T23:30:38.433Z,0.88
2022-12-16T23:31:40.395Z,0.85
2022-12-16T23:32:42.408Z,0.86
2022-12-16T23:33:44.534Z,0.85
2022-12-16T23:34:46.519Z,0.88
2022-12-16T23:35:48.605Z,0.87
2022-12-16T23:36:51.543Z,0.90
2022-12-16T23:38:04.141Z,0.90
2022-12-16T23:39:06.278Z,0.88
2022-12-16T23:40:10.297Z,0.92
2022-12-16T23:41:12.519Z,0.93
2022-12-16T23:42:14.396Z,0.91
2022-12-16T23:43:16.337Z,0.88
2022-12-16T23:44:18.225Z,0.85
2022-12-16T23:45:20.133Z,0.79
2022-12-16T23:46:22.240Z,0.86
2022-12-16T23:47:24.298Z,0.86
2022-12-16T23:48:26.842Z,0.85
2022-12-16T23:49:28.854Z,0.86
2022-12-16T23:50:30.817Z,0.88
2022-12-16T23:51:32.722Z,0.86
2022-12-16T23:52:34.723Z,0.86
2022-12-16T23:53:37.489Z,0.84
2022-12-16T23:54:40.998Z,0.86
2022-12-16T23:55:42.909Z,0.87
2022-12-16T23:56:45.066Z,0.90
2022-12-16T23:57:46.934Z,0.86
2022-12-16T23:58:49.349Z,0.85
2022-12-16T23:59:51.229Z,0.86
